Tiempo atmosférico en la estación meteorológica de Xinzo De Limia, Ourense (600 m.)



Fecha
DESCASC
Temp. máxima en grados centígrados (hora)
DESCASC
Temp. mínima en grados centígrados (hora)
DESCASC
Temp. media en grados centígrados
DESCASC
Racha de viento máxima en m/sg (hora)
DESCASC
Velocidad máxima media en intervalos de 10 minutos(hora)
DESCASC
Precipitaciones diarias en mm
DESCASC
Precipitaciones de 00:00 a 06:00 en mm
DESCASC
Precipitaciones de 06:00 a 12:00 en mm
DESCASC
Precipitaciones de 12:00 a 18:00 en mm
DESCASC
Precipitaciones de 18:00 a 24:00 en mm
DESCASC
31-03-2020 3.4 (19:10) -4.1 (03:40) -0.3 5.83 (00:30) 3.89 (00:40) 6.5 0 0.1 5.5 0.9
29-03-2020 18 (15:30) -2.9 (-00:0) 7.5 6.67 (20:20) 3.89 (17:40) 0 0 0 0 0
28-03-2020 16.7 (18:40) -2.8 (-00:0) 7 8.89 (14:40) 4.44 (14:10) 0 0 0 0 0
27-03-2020 13 (15:40) -3.6 (-00:0) 4.7 11.94 (09:20) 6.39 (16:30) 0 0 0 0 0
26-03-2020 15.4 (16:00) -2.3 (-00:0) 6.5 10 (14:50) 6.11 (15:00) 0 0 0 0 0
25-03-2020 18.6 (15:10) 0.3 (00:00) 9.5 10.28 (18:00) 5.28 (17:30) 0 0 0 0 0
24-03-2020 19.1 (16:20) 2.6 (00:00) 10.9 12.78 (13:10) 3.89 (14:10) 0 0 0 0 0
23-03-2020 17.3 (16:50) 3.9 (00:00) 10.6 5.28 (19:10) 2.78 (15:40) 0 0 0 0 0
22-03-2020 15.8 (14:50) 6.2 (23:59) 11 8.61 (16:50) 5.83 (16:50) 0.1 0 0.1 0 0
21-03-2020 10.6 (16:40) 7.2 (00:00) 8.9 6.39 (10:40) 3.89 (13:40) 2.4 1.9 0.4 0.1 0
20-03-2020 11.6 (13:30) 7.7 (00:00) 9.7 7.78 (11:50) 4.72 (11:50) 33.2 26.8 4.8 1.3 0.3
19-03-2020 20.3 (15:00) 3.1 (00:00) 11.7 6.94 (11:00) 4.72 (11:00) 0.1 0 0 0 0.1
18-03-2020 21.5 (15:30) -0.5 (-00:0) 10.5 5.56 (17:30) 3.33 (17:40) 0 0 0 0 0
17-03-2020 17 (15:40) -0.2 (00:00) 8.4 7.5 (15:40) 4.17 (15:20) 0 0 0 0 0
16-03-2020 8.8 (14:50) 0.9 (00:00) 4.9 16.94 (14:20) 11.11 (14:30) 0.1 0.1 0 0 0
15-03-2020 13.8 (13:40) -4.2 (-00:0) 4.8 10 (15:00) 6.11 (17:00) 2.3 0 0 1.7 0.6
14-03-2020 18.6 (16:40) 0.7 (00:00) 9.7 6.94 (22:00) 3.89 (17:40) 0 0 0 0 0
13-03-2020 14.6 (16:40) 3.3 (23:59) 9 7.78 (17:30) 4.72 (17:30) 0 0 0 0 0
12-03-2020 15.9 (15:30) 4.6 (00:00) 10.2 7.78 (17:20) 5.28 (16:40) 0 0 0 0 0
11-03-2020 23.3 (14:40) 0.2 (00:00) 11.7 10 (15:10) 5.56 (15:00) 0 0 0 0 0
10-03-2020 20.6 (16:00) 0.1 (00:00) 10.4 8.61 (14:30) 4.17 (15:00) 0 0 0 0 0
09-03-2020 13.8 (16:50) -0.3 (00:00) 6.8 7.5 (11:50) 5 (11:40) 0 0 0 0 0
08-03-2020 13.8 (16:50) -0.1 (00:00) 6.9 10.56 (15:10) 4.72 (14:50) 0.2 0 0.1 0.1 0
07-03-2020 15.2 (17:20) 2.7 (00:00) 8.9 6.39 (21:10) 3.33 (21:20) 0.9 0.9 0 0 0
06-03-2020 9.2 (16:00) 3 (00:00) 6.1 12.5 (11:40) 8.06 (14:20) 2.6 2.1 0.4 0.1 0
05-03-2020 11.3 (00:30) 4.5 (00:00) 7.9 12.5 (18:00) 6.67 (06:00) 21.7 10.6 1.7 7.4 2
04-03-2020 14.1 (17:00) 9 (07:20) 11.6 9.17 (14:40) 4.72 (13:30) 0.8 0 0 0.1 0.7

Gráficas

Temp. máximas Temp. mínimas Temp. medias Precipitaciones Rachas de viento máximas Velocidades máximas media en intervalos de 10 minutos

Datos horarios

Fecha y hora oficial Temperatura (ºC) Velocidad del viento (km/h) Dirección del viento Racha (km/h) Dirección de racha Precipitación (mm) Presión (hPa) Tendencia (hPa) Humedad (%)
2020-04-02 23:00:00 -- -- -- -- -- -- -- -- --
2020-04-02 22:00:00 -- -- -- -- -- -- -- -- --
2020-04-02 21:00:00 -- -- -- -- -- -- -- -- --
2020-04-02 20:00:00 -- -- -- -- -- -- -- -- --
2020-04-02 19:00:00 -- -- -- -- -- -- -- -- --
2020-04-02 18:00:00 -- -- -- -- -- -- -- -- --
2020-04-02 17:00:00 15.5 18 Norte 30 Norte 0 -- -- 52
2020-04-02 16:00:00 15.9 13 Norte 28 Norte 0 -- -- 48
2020-04-02 15:00:00 15.7 11 Nordeste 29 Norte 0 -- -- 51
2020-04-02 14:00:00 14.5 13 Norte 25 Norte 0 -- -- 56
2020-04-02 13:00:00 13.2 10 Norte 23 Norte 0 -- -- 61
2020-04-02 12:00:00 -- -- -- -- -- -- -- -- --
2020-04-02 11:00:00 8.7 8 Norte -- -- -- -- -- 92
2020-04-02 10:00:00 6.5 4 Nordeste 7 Nordeste 0 -- -- 93
2020-04-02 09:00:00 4.7 0 Calma 7 Sudoeste 0 -- -- 93
2020-04-02 08:00:00 3.8 3 Sudoeste 9 Sudoeste 0 -- -- 93
2020-04-02 07:00:00 2.8 0 Calma 6 Sudoeste 0 -- -- 93
2020-04-02 06:00:00 2.7 3 Sudoeste 6 Sudoeste 0 -- -- 93
2020-04-02 05:00:00 2 4 Sudeste 8 Sur 0 -- -- 92
2020-04-02 04:00:00 2.5 0 Calma 6 Oeste 0 -- -- 92
2020-04-02 03:00:00 2.6 4 Sudoeste 9 Sudoeste 0 -- -- 91
2020-04-02 02:00:00 2.9 4 Sudoeste 8 Oeste 0 -- -- 90
2020-04-02 01:00:00 3.3 4 Oeste 8 Sudoeste 0 -- -- 87
2020-04-02 00:00:00 4.1 4 Sudoeste 10 Sudoeste 0 -- -- 84
2020-04-01 23:00:00 5.2 6 Noroeste 14 Norte 0 -- -- 81
2020-04-01 22:00:00 6.4 10 Norte 18 Norte 0 -- -- 76
2020-04-01 21:00:00 6.9 10 Norte 15 Norte 0 -- -- 68
2020-04-01 20:00:00 9.8 9 Norte 16 Nordeste 0 -- -- 55
2020-04-01 19:00:00 11.6 8 Este 21 Sudeste 0 -- -- 44
2020-04-01 18:00:00 12.5 7 Sudeste 21 Este 0 -- -- 43
2020-04-01 17:00:00 10.7 9 Sur 25 Sur 0 -- -- 46
2020-04-01 16:00:00 9.9 15 Sudeste 26 Sudeste 0 -- -- 47
2020-04-01 15:00:00 11.1 13 Sudeste 27 Sudeste 0 -- -- 47
2020-04-01 14:00:00 10.3 17 Sur 28 Sur 0 -- -- 52
2020-04-01 13:00:00 8.6 13 Sudeste 29 Sudeste 0 -- -- 60
2020-04-01 12:00:00 7.6 18 Sudeste 30 Sudeste 0 -- -- 73
2020-04-01 11:00:00 5.7 14 Sudeste 24 Sur 0 -- -- 86
2020-04-01 10:00:00 4 10 Sudeste 21 Sudeste 0 -- -- 94
2020-04-01 09:00:00 2.1 11 Sur 19 Sur 0 -- -- 94
2020-04-01 08:00:00 0.9 10 Sudeste 17 Sur 0 -- -- 94
2020-04-01 07:00:00 1.4 10 Sudeste 15 Sudeste 0 -- -- 94
2020-04-01 06:00:00 1.7 8 Sudeste 13 Sudeste 0 -- -- 94
2020-04-01 05:00:00 2.8 8 Sudeste 11 Sudeste 0 -- -- 94
2020-04-01 04:00:00 3.9 0 Calma 15 Sudeste 0 -- -- 94
2020-04-01 03:00:00 5 10 Sudeste 19 Sudeste 0.1 -- -- 94
2020-04-01 02:00:00 4.4 9 Sudeste 15 Sudeste 0.2 -- -- 94
2020-04-01 01:00:00 3.4 6 Nordeste 9 Nordeste 2.7 -- -- 94
2020-04-01 00:00:00 3.4 5 Sudeste -- -- -- -- -- 93
2020-03-31 23:00:00 3 0 Calma 5 Este 0 -- -- 93
2020-03-31 22:00:00 3.1 4 Este 6 Este 0 -- -- 93
2020-03-31 21:00:00 3.2 2 Nordeste 6 Nordeste 0 -- -- 92
2020-03-31 20:00:00 3.2 3 Nordeste 6 Noroeste 0 -- -- 92
2020-03-31 19:00:00 3.3 2 Norte 6 Nordeste 0.2 -- -- 92
2020-03-31 18:00:00 2.1 4 Este 8 Este 1 -- -- 92
2020-03-31 17:00:00 0.6 0 Calma 5 Nordeste 0.8 -- -- 92
2020-03-31 16:00:00 0 0 Calma -- -- -- -- -- 91
2020-03-31 15:00:00 0.1 3 Nordeste 12 Nordeste 1.6 -- -- 89
2020-03-31 14:00:00 1.2 8 Nordeste 11 Nordeste 0.5 -- -- 87
2020-03-31 13:00:00 1 6 Nordeste 10 Oeste 0.1 -- -- 81
2020-03-31 12:00:00 0.1 4 Sudoeste 11 Sur 0.1 -- -- 76
2020-03-31 11:00:00 0.4 0 Calma 5 Norte 0 -- -- 71
2020-03-31 10:00:00 -0.9 2 Este 6 Sudeste 0 -- -- 74
2020-03-31 09:00:00 -1.6 0 Calma 6 Sudoeste 0 -- -- 75
2020-03-31 08:00:00 -2.1 0 Calma 5 Nordeste 0 -- -- 74
2020-03-31 07:00:00 -2.7 3 Norte 12 Norte 0 -- -- 76
2020-03-31 06:00:00 -3.6 5 Norte 9 Nordeste 0 -- -- 72
2020-03-31 05:00:00 -3.6 4 Sudeste 10 Nordeste 0 -- -- 71
2020-03-31 04:00:00 -4.1 5 Nordeste 9 Nordeste 0 -- -- 70
2020-03-31 03:00:00 -3.5 8 Nordeste 12 Nordeste 0 -- -- 66
2020-03-31 02:00:00 -2.5 9 Nordeste 17 Nordeste 0 -- -- 63
2020-03-31 01:00:00 -1.9 12 Nordeste 21 Nordeste 0 -- -- 60
2020-03-31 00:00:00 -1.2 10 Nordeste 17 Norte 0 -- -- 57
2020-03-30 23:00:00 1 13 Nordeste 19 Nordeste 0 -- -- 55
2020-03-30 22:00:00 3.5 8 Nordeste 16 Nordeste 0 -- -- 58
2020-03-30 21:00:00 4.5 7 Este 26 Sudeste 0 -- -- 52
2020-03-30 20:00:00 5.7 18 Sudeste 33 Sudeste 0 -- -- 49
2020-03-30 19:00:00 5.5 18 Sudeste 33 Sudeste 0 -- -- 52
2020-03-30 18:00:00 6.2 21 Sudeste 34 Sudeste 0 -- -- 52
2020-03-30 17:00:00 6 16 Sudeste 27 Sudeste 0 -- -- 57
2020-03-30 16:00:00 4.4 14 Sudeste 24 Sudeste 0 -- -- 67
2020-03-30 15:00:00 3.6 10 Sudeste 20 Este 0 -- -- 75
2020-03-30 14:00:00 3.1 12 Este 26 Sudeste 0 -- -- 75
2020-03-30 13:00:00 2.6 17 Sudeste 33 Sudeste 0 -- -- 81
2020-03-30 12:00:00 2.7 15 Sudeste 29 Sudeste 0 -- -- 79
2020-03-30 11:00:00 3.5 10 Sudeste 22 Sudeste 0 -- -- 81
2020-03-30 10:00:00 3.9 5 Sudeste 14 Sudeste 0 -- -- 92
2020-03-30 09:00:00 3.5 6 Nordeste 9 Nordeste 0 -- -- 92
2020-03-30 08:00:00 3.1 3 Norte 10 Nordeste 0 -- -- 92
2020-03-30 07:00:00 2.4 0 Calma 5 Sur 0 -- -- 92
2020-03-30 06:00:00 2.1 0 Calma 5 Este 0 -- -- 91
2020-03-30 05:00:00 2.1 0 Calma 4 Sur 0 -- -- 89
2020-03-30 04:00:00 3.2 3 Sur 5 Sudoeste 0 -- -- 87
2020-03-30 03:00:00 4.1 0 Calma 6 Oeste 0 -- -- 84
2020-03-30 02:00:00 5 3 Sudoeste 6 Sudoeste 0 -- -- 83
2020-03-30 01:00:00 4.8 0 Calma 12 Sudoeste 0 -- -- 81
2020-03-30 00:00:00 5.3 2 Sur 4 Sur 0 -- -- 78
2020-03-29 23:00:00 7.3 0 Calma 13 Noroeste 0 -- -- 71
2020-03-29 22:00:00 8.7 7 Noroeste 14 Norte 0 -- -- 71
2020-03-29 21:00:00 10.6 10 Norte 24 Nordeste 0 -- -- 61
2020-03-29 20:00:00 12.9 12 Nordeste 20 Nordeste 0 -- -- 48
2020-03-29 19:00:00 15.1 10 Noroeste 21 Noroeste 0 -- -- 37
2020-03-29 18:00:00 16.9 8 Noroeste 21 Noroeste 0 -- -- 34
2020-03-29 17:00:00 17.2 12 Noroeste 21 Noroeste 0 -- -- 34
2020-03-29 16:00:00 16.6 8 Norte 22 Norte 0 -- -- 35
2020-03-29 15:00:00 17.2 4 Norte 12 Noroeste 0 -- -- 34
2020-03-29 14:00:00 16.5 6 Norte 11 Noroeste 0 -- -- 36
2020-03-29 13:00:00 14.8 4 Nordeste 9 Norte 0 -- -- 46
2020-03-29 12:00:00 10.4 3 Norte 9 Norte 0 -- -- 68
2020-03-29 11:00:00 6.8 2 Este 5 Sur 0 -- -- 88
2020-03-29 10:00:00 1.2 0 Calma 5 Sur 0 -- -- 93
2020-03-29 09:00:00 -2.4 0 Calma 5 Sudoeste 0 -- -- 93
2020-03-29 08:00:00 -2.7 0 Calma 3 Sudoeste 0 -- -- 93
2020-03-29 07:00:00 -2.2 0 Calma 3 Sudoeste 0 -- -- 92
2020-03-29 06:00:00 -2 0 Calma 4 Sudoeste 0 -- -- 91
2020-03-29 05:00:00 -1.1 0 Calma 7 Sur 0 -- -- 89
2020-03-29 03:00:00 0.1 0 Calma 0 Calma 0 -- -- 85
2020-03-29 01:00:00 1.3 0 Calma 5 Sudeste 0 -- -- 81
2020-03-29 00:00:00 3.1 0 Calma 6 Sur 0 -- -- 75
2020-03-28 23:00:00 5.3 6 Sur 9 Noroeste 0 -- -- 67
2020-03-28 22:00:00 6.4 5 Oeste 9 Oeste 0 -- -- 55
2020-03-28 21:00:00 8.6 3 Norte 10 Noroeste 0 -- -- 45
2020-03-28 20:00:00 12.2 0 Calma 7 Noroeste 0 -- -- 36
2020-03-28 19:00:00 16.3 4 Sur 14 Sudeste 0 -- -- 29
2020-03-28 18:00:00 16.5 4 Sur 20 Sur 0 -- -- 28
2020-03-28 17:00:00 16.4 8 Sur 23 Sudeste 0 -- -- 29
2020-03-28 16:00:00 15.9 9 Sudeste 25 Sur 0 -- -- 29
2020-03-28 15:00:00 15.6 10 Sudeste 32 Sudeste 0 -- -- 30
2020-03-28 14:00:00 15.2 14 Sudeste 30 Sur 0 -- -- 30
2020-03-28 13:00:00 14.2 5 Este 16 Sur 0 -- -- 36
2020-03-28 12:00:00 10.8 3 Sudeste 9 Norte 0 -- -- 60
2020-03-28 11:00:00 6.3 0 Calma -- -- 0 -- -- 77
2020-03-28 10:00:00 2.9 0 Calma -- -- 0 -- -- 85
2020-03-28 09:00:00 0 0 Calma 5 Sudoeste 0 -- -- 88
2020-03-28 08:00:00 -1.4 3 Sudoeste 5 Sudoeste 0 -- -- 89
2020-03-28 07:00:00 -1.9 2 Sudoeste 7 Oeste 0 -- -- 89
2020-03-28 06:00:00 -2.4 0 Calma 3 Sudoeste 0 -- -- 88
2020-03-28 05:00:00 -2.6 0 Calma -- -- 0 -- -- 87
2020-03-28 04:00:00 -2.4 0 Calma 5 Oeste 0 -- -- 84
2020-03-28 03:00:00 -1.4 2 Sudoeste 6 Noroeste 0 -- -- 80
2020-03-28 02:00:00 -1.3 3 Norte 14 Sudeste 0 -- -- 75
2020-03-28 01:00:00 -0.4 4 Este 7 Sudoeste 0 -- -- 72
2020-03-28 00:00:00 1.2 5 Sudoeste 7 Sudoeste 0 -- -- 64
2020-03-27 23:00:00 3.5 4 Sudeste 12 Sudeste 0 -- -- 52
2020-03-27 22:00:00 5.2 8 Sudeste 14 Sudeste 0 -- -- 43
2020-03-27 21:00:00 6.8 10 Sudeste 21 Sudeste 0 -- -- 38
2020-03-27 20:00:00 8.8 11 Sudeste 28 Sudeste 0 -- -- 33
2020-03-27 19:00:00 11.5 15 Sudeste 31 Sudeste 0 -- -- 28
2020-03-27 18:00:00 12.4 17 Sudeste 36 Sur 0 -- -- 28
2020-03-27 17:00:00 12.7 19 Sudeste 40 Sudeste 0 -- -- 29
2020-03-27 16:00:00 12.8 19 Sudeste 35 Sur 0 -- -- 30
2020-03-27 15:00:00 12.4 17 Sudeste 30 Sudeste 0 -- -- 30
2020-03-27 14:00:00 12 17 Sudeste 37 Sudeste 0 -- -- 31
2020-03-27 13:00:00 10.8 18 Sudeste 37 Sudeste 0 -- -- 33
2020-03-27 12:00:00 9.6 15 Sudeste 28 Sudeste 0 -- -- 40
2020-03-27 11:00:00 7.3 14 Sudeste 31 Sudeste 0 -- -- 48
2020-03-27 10:00:00 5.2 16 Sudeste 43 Sudeste 0 -- -- 59
2020-03-27 09:00:00 2.5 14 Sudeste 25 Sudeste 0 -- -- 76
2020-03-27 08:00:00 0.1 10 Sudeste 23 Sudeste 0 -- -- 89
2020-03-27 07:00:00 -0.4 9 Sudeste 19 Sur 0 -- -- 93
2020-03-27 06:00:00 -2.9 0 Calma 9 Este 0 -- -- 93
2020-03-27 05:00:00 -3.3 0 Calma -- -- 0 -- -- 92
2020-03-27 04:00:00 -2.5 0 Calma 5 Noroeste 0 -- -- 91
2020-03-27 03:00:00 -1.5 5 Este 7 Nordeste 0 -- -- 89
2020-03-27 02:00:00 0.2 3 Sudoeste 6 Sudoeste 0 -- -- 88
2020-03-27 01:00:00 0.7 0 Calma 8 Sur 0 -- -- 85
2020-03-27 00:00:00 2.4 4 Sudoeste 14 Norte 0 -- -- 82
2020-03-26 23:00:00 3.5 11 Norte 22 Norte 0 -- -- 80
2020-03-26 22:00:00 5.1 4 Norte 17 Noroeste 0 -- -- 66
2020-03-26 21:00:00 7.2 6 Noroeste 14 Noroeste 0 -- -- 50
2020-03-26 20:00:00 9.3 5 Noroeste 20 Norte 0 -- -- 36
2020-03-26 19:00:00 12.4 13 Norte 32 Noroeste 0 -- -- 31
2020-03-26 18:00:00 13.9 20 Norte 34 Noroeste 0 -- -- 29
2020-03-26 17:00:00 15 19 Norte 35 Norte 0 -- -- 28
2020-03-26 16:00:00 15.1 19 Norte 34 Noroeste 0 -- -- 26
2020-03-26 15:00:00 14.5 22 Noroeste 36 Noroeste 0 -- -- 26
2020-03-26 14:00:00 13.9 18 Noroeste 29 Noroeste 0 -- -- 28
2020-03-26 13:00:00 12.9 14 Norte 28 Noroeste 0 -- -- 29
2020-03-26 12:00:00 12.3 15 Norte 24 Norte 0 -- -- 29
2020-03-26 11:00:00 10.3 4 Noroeste 12 Noroeste 0 -- -- 46
2020-03-26 10:00:00 6.4 4 Oeste 10 Sudoeste 0 -- -- 90
2020-03-26 09:00:00 2.6 4 Sudoeste 9 Sur 0 -- -- 93
2020-03-26 08:00:00 -0.6 4 Sudoeste 7 Sudoeste 0 -- -- 92
2020-03-26 07:00:00 -1.9 0 Calma 4 Nordeste 0 -- -- 91
2020-03-26 06:00:00 -0.5 0 Calma 8 Oeste 0 -- -- 90
2020-03-26 05:00:00 1.6 3 Sudoeste 6 Sudoeste 0 -- -- 90
2020-03-26 04:00:00 2.9 0 Calma 10 Oeste 0 -- -- 89
2020-03-26 03:00:00 4.3 5 Oeste 10 Sudoeste 0 -- -- 89
2020-03-26 02:00:00 5.3 6 Oeste 13 Oeste 0 -- -- 87
2020-03-26 01:00:00 5.8 8 Oeste 12 Noroeste 0 -- -- 83
2020-03-26 00:00:00 7.1 3 Nordeste 15 Noroeste 0 -- -- 79
2020-03-25 23:00:00 9.1 10 Noroeste 19 Noroeste 0 -- -- 76
2020-03-25 22:00:00 9.7 10 Noroeste 17 Noroeste 0 -- -- 71
2020-03-25 21:00:00 10.4 9 Noroeste 18 Noroeste 0 -- -- 63
2020-03-25 20:00:00 12.3 9 Oeste 30 Oeste 0 -- -- 58
2020-03-25 19:00:00 14.1 14 Noroeste 36 Oeste 0 -- -- 49
2020-03-25 18:00:00 16 15 Oeste 37 Oeste 0 -- -- 46
2020-03-25 17:00:00 17 16 Norte 27 Noroeste 0 -- -- 39
2020-03-25 16:00:00 16.3 13 Noroeste 30 Noroeste 0 -- -- 46
2020-03-25 15:00:00 18.2 16 Norte 30 Norte 0 -- -- 43
2020-03-25 14:00:00 17.8 14 Noroeste 27 Norte 0 -- -- 42
2020-03-25 13:00:00 17.3 13 Noroeste 25 Norte 0 -- -- 45
2020-03-25 12:00:00 16.5 12 Norte 21 Norte 0 -- -- 51
2020-03-25 11:00:00 12.9 2 Norte 6 Nordeste 0 -- -- 68
2020-03-25 10:00:00 8.9 0 Calma 6 Sur 0 -- -- 90
2020-03-25 09:00:00 4.5 0 Calma 0 Calma 0 -- -- 92
2020-03-25 08:00:00 1.2 0 Calma 4 Sur 0 -- -- 92
2020-03-25 07:00:00 0.5 0 Calma 5 Sudoeste 0 -- -- 91
2020-03-25 06:00:00 1.4 0 Calma 5 Sudoeste 0 -- -- 90
2020-03-25 05:00:00 2.1 0 Calma 5 Sudoeste 0 -- -- 89
2020-03-25 04:00:00 3.3 3 Sur 9 Sur 0 -- -- 88
2020-03-25 03:00:00 3.9 4 Sur 7 Sur 0 -- -- 87
2020-03-25 02:00:00 4.7 0 Calma 4 Oeste 0 -- -- 86
2020-03-25 01:00:00 5.8 0 Calma 8 Sudeste 0 -- -- 82
2020-03-25 00:00:00 7.4 2 Sur 6 Sur 0 -- -- 79
2020-03-24 23:00:00 9.3 2 Nordeste 6 Nordeste 0 -- -- 69
2020-03-24 22:00:00 11.5 3 Sudoeste 6 Sudeste 0 -- -- 59
2020-03-24 21:00:00 12.6 4 Sur 12 Este 0 -- -- 58
2020-03-24 20:00:00 14 5 Este 11 Este 0 -- -- 50
2020-03-24 19:00:00 15.5 6 Sudeste 11 Sudeste 0 -- -- 45
2020-03-24 18:00:00 16.9 6 Nordeste 14 Nordeste 0 -- -- 43
2020-03-24 17:00:00 16.7 7 Nordeste 23 Sudeste 0 -- -- 46
2020-03-24 16:00:00 18.5 6 Sudeste 21 Este 0 -- -- 41
2020-03-24 15:00:00 17.7 10 Sudeste 28 Sur 0 -- -- 42
2020-03-24 14:00:00 17.7 14 Sudeste 46 Sudeste 0 -- -- 42
2020-03-24 13:00:00 16.8 4 Noroeste 14 Norte 0 -- -- 51
2020-03-24 12:00:00 14 8 Nordeste 15 Nordeste 0 -- -- 69
2020-03-24 11:00:00 10.6 3 Norte 8 Norte 0 -- -- 94
2020-03-24 10:00:00 6.4 3 Sudoeste 7 Sudoeste 0 -- -- 94
2020-03-24 09:00:00 3.5 0 Calma -- -- 0 -- -- 94
2020-03-24 08:00:00 2.6 0 Calma 0 Calma 0 -- -- 94
2020-03-24 07:00:00 3.1 0 Calma 4 Este 0 -- -- 94
2020-03-24 06:00:00 3.9 0 Calma 4 Sudoeste 0 -- -- 93
2020-03-24 05:00:00 4.7 0 Calma 5 Sudoeste 0 -- -- 93
2020-03-24 04:00:00 5.4 0 Calma 5 Este 0 -- -- 93
2020-03-24 03:00:00 5.8 0 Calma 4 Norte 0 -- -- 92
2020-03-24 02:00:00 5.9 0 Calma 5 Sur 0 -- -- 92
2020-03-24 01:00:00 5.9 0 Calma 5 Sur 0 -- -- 90
2020-03-24 00:00:00 5.8 3 Sudeste 6 Este 0 -- -- 88
2020-03-23 23:00:00 7 0 Calma 5 Sur 0 -- -- 84
2020-03-23 22:00:00 8.7 4 Norte 10 Norte 0 -- -- 81
2020-03-23 21:00:00 10.1 3 Nordeste 13 Norte 0 -- -- 75
2020-03-23 20:00:00 11.7 10 Nordeste 19 Este 0 -- -- 55
2020-03-23 19:00:00 15.1 3 Norte 14 Nordeste 0 -- -- 48
2020-03-23 18:00:00 16.8 3 Nordeste 14 Norte 0 -- -- 43
2020-03-23 17:00:00 16.6 10 Norte 16 Norte 0 -- -- 45
2020-03-23 16:00:00 16.5 8 Norte 18 Norte 0 -- -- 45
2020-03-23 15:00:00 16.8 0 Calma 18 Norte 0 -- -- 45
2020-03-23 14:00:00 14.7 4 Nordeste 12 Nordeste 0 -- -- 52
2020-03-23 13:00:00 13.1 3 Norte 11 Norte 0 -- -- 71
2020-03-23 12:00:00 10.4 4 Este 9 Este 0 -- -- 93
2020-03-23 11:00:00 7.1 3 Noroeste 9 Norte 0 -- -- 94
2020-03-23 10:00:00 6.2 5 Norte 9 Norte 0 -- -- 94
2020-03-23 09:00:00 5.5 0 Calma 7 Este 0 -- -- 94
2020-03-23 08:00:00 5.7 3 Sudeste 8 Sudeste 0 -- -- 93
2020-03-23 07:00:00 5.7 0 Calma 8 Este 0 -- -- 93
2020-03-23 06:00:00 5.9 0 Calma 6 Nordeste 0 -- -- 93
2020-03-23 05:00:00 5.5 0 Calma 2 Sudoeste 0 -- -- 93
2020-03-23 04:00:00 5.4 3 Sur 6 Sur 0 -- -- 92
2020-03-23 03:00:00 4.4 2 Sudoeste 5 Sur 0 -- -- 92
2020-03-23 02:00:00 4.8 3 Sur 5 Sur 0 -- -- 91
2020-03-23 01:00:00 5.5 0 Calma 8 Este 0 -- -- 89
2020-03-23 00:00:00 6.2 6 Este 10 Este 0 -- -- 83
2020-03-22 23:00:00 8.5 0 Calma 9 Sur 0 -- -- 76
2020-03-22 22:00:00 10.4 6 Sur 14 Sudeste 0 -- -- 80
2020-03-22 21:00:00 10.5 3 Noroeste 8 Noroeste 0 -- -- 78
2020-03-22 20:00:00 11.1 6 Noroeste 12 Oeste 0 -- -- 74
2020-03-22 19:00:00 12.2 9 Noroeste 19 Norte 0 -- -- 70
2020-03-22 18:00:00 13 12 Norte 26 Norte 0 -- -- 70
2020-03-22 17:00:00 13.5 19 Norte 31 Norte 0 -- -- 67
2020-03-22 16:00:00 14.4 17 Norte 26 Norte 0 -- -- 63
2020-03-22 15:00:00 15.5 10 Norte 18 Norte 0 -- -- 61
2020-03-22 14:00:00 14.3 6 Nordeste 17 Norte 0 -- -- 62
2020-03-22 13:00:00 13.9 0 Calma 15 Norte 0 -- -- 68
2020-03-22 12:00:00 12.4 7 Nordeste 12 Norte 0 -- -- 74
2020-03-22 11:00:00 11.3 6 Nordeste 15 Nordeste 0 -- -- 81
2020-03-22 10:00:00 9.4 7 Norte 11 Norte 0 -- -- 92
2020-03-22 09:00:00 8.1 0 Calma -- -- 0 -- -- 92
2020-03-22 08:00:00 7.4 0 Calma -- -- 0 -- -- 92
2020-03-22 07:00:00 7.1 0 Calma -- -- 0.1 -- -- 92
2020-03-22 06:00:00 6.7 0 Calma -- -- 0 -- -- 92
2020-03-22 05:00:00 7.4 0 Calma 5 Sudeste 0 -- -- 92
2020-03-22 04:00:00 7.6 0 Calma -- -- 0 -- -- 91
2020-03-22 03:00:00 7.6 0 Calma -- -- 0 -- -- 91
2020-03-22 02:00:00 7.7 0 Calma -- -- 0 -- -- 91
2020-03-22 01:00:00 7.6 0 Calma -- -- 0 -- -- 90
2020-03-22 00:00:00 7.6 0 Calma 5 Nordeste 0 -- -- 89
2020-03-21 23:00:00 7.5 2 Nordeste 4 Nordeste 0 -- -- 87
2020-03-21 22:00:00 7.9 3 Este 8 Sudeste 0 -- -- 85
2020-03-21 21:00:00 8 2 Este 12 Sudeste 0 -- -- 83
2020-03-21 20:00:00 8.6 6 Sudeste 16 Sur 0 -- -- 81
2020-03-21 19:00:00 9.5 7 Sudeste 17 Sur 0 -- -- 78
2020-03-21 18:00:00 10.3 10 Sudeste 16 Sudeste 0 -- -- 77
2020-03-21 17:00:00 10.4 9 Sudeste 16 Sudeste 0 -- -- 79
2020-03-21 16:00:00 9.9 9 Sudeste 14 Este 0 -- -- 82
2020-03-21 15:00:00 9.8 6 Sudeste 17 Sudeste 0 -- -- 89
2020-03-21 14:00:00 9.2 10 Sudeste 20 Norte 0.1 -- -- 90
2020-03-21 13:00:00 8.7 10 Sudeste 18 Sudeste 0 -- -- 89
2020-03-21 12:00:00 9.6 11 Este 23 Sudeste 0 -- -- 91
2020-03-21 11:00:00 9.5 13 Sudeste 23 Sudeste 0 -- -- 93
2020-03-21 10:00:00 8.6 5 Sudeste 14 Este 0.1 -- -- 93
2020-03-21 09:00:00 7.6 6 Este 13 Sudeste 0 -- -- 93
2020-03-21 08:00:00 7.3 6 Este 13 Sur 0 -- -- 93
2020-03-21 07:00:00 7.6 4 Sudeste 9 Sudeste 0.3 -- -- 93
2020-03-21 06:00:00 7.5 4 Nordeste 7 Nordeste 0.2 -- -- 92
2020-03-21 05:00:00 7.3 0 Calma 6 Norte 0.8 -- -- 92
2020-03-21 04:00:00 7.5 5 Sur 10 Sur 0.2 -- -- 92
2020-03-21 03:00:00 7.3 0 Calma 9 Este 0 -- -- 91
2020-03-21 02:00:00 7.8 5 Este 11 Este 0.1 -- -- 90
2020-03-21 01:00:00 8.5 5 Sudeste 17 Sudeste 0.6 -- -- 90
2020-03-21 00:00:00 8.9 9 Sudeste 16 Sudeste 0.3 -- -- 87
2020-03-20 23:00:00 9.5 8 Sudeste 16 Este 0 -- -- 86
2020-03-20 22:00:00 9.4 3 Sudeste 16 Sudeste 0 -- -- 86
2020-03-20 21:00:00 9.8 6 Sudeste 17 Sudeste 0 -- -- 85
2020-03-20 20:00:00 10 9 Sudeste 19 Sudeste 0 -- -- 85
2020-03-20 19:00:00 10.3 9 Sudeste 16 Sudeste 0 -- -- 84
2020-03-20 18:00:00 10.1 8 Sudeste 27 Sudeste 0 -- -- 84
2020-03-20 17:00:00 10.2 15 Sudeste 27 Sudeste 0 -- -- 85
2020-03-20 16:00:00 10.6 12 Sudeste 27 Sudeste 0.5 -- -- 87
2020-03-20 15:00:00 10.3 15 Sudeste 27 Sudeste 0.6 -- -- 87
2020-03-20 14:00:00 10.8 16 Sudeste 27 Sudeste 0.1 -- -- 81
2020-03-20 13:00:00 11.1 10 Sudeste 24 Sudeste 0.1 -- -- 83
2020-03-20 12:00:00 11.1 15 Sudeste 28 Sur 0 -- -- 84
2020-03-20 11:00:00 11.1 8 Sudeste 16 Sudeste 0 -- -- 93
2020-03-20 10:00:00 9.2 5 Sudeste 10 Sudeste 0 -- -- 93
2020-03-20 09:00:00 8.2 0 Calma 5 Sudeste 0 -- -- 93
2020-03-20 08:00:00 7.8 0 Calma 9 Sudeste 0.6 -- -- 93
2020-03-20 07:00:00 8 7 Este 10 Sudeste 4.2 -- -- 93
2020-03-20 06:00:00 8.6 5 Este 10 Sudeste 7.5 -- -- 93
2020-03-20 05:00:00 9.2 4 Oeste 10 Sudoeste 1.8 -- -- 93
2020-03-20 04:00:00 9.3 0 Calma 5 Sudeste 0.1 -- -- 92
2020-03-20 03:00:00 9.3 4 Norte 13 Este 4.6 -- -- 92
2020-03-20 02:00:00 9.5 0 Calma 10 Este 4.5 -- -- 90
2020-03-20 01:00:00 9.7 4 Este 11 Nordeste 8.3 -- -- 85
2020-03-20 00:00:00 10.8 2 Norte 14 Noroeste 0.1 -- -- 76
2020-03-19 23:00:00 11.8 6 Oeste 22 Oeste 0 -- -- 66
2020-03-19 22:00:00 12.5 13 Oeste 25 Oeste 0 -- -- 64
2020-03-19 21:00:00 13.3 7 Sudoeste 16 Oeste 0 -- -- 63
2020-03-19 20:00:00 14.8 3 Oeste 8 Sudoeste 0 -- -- 60
2020-03-19 19:00:00 16.9 0 Calma 4 Oeste 0 -- -- 57
2020-03-19 18:00:00 17.6 3 Sudoeste 12 Oeste 0 -- -- 52
2020-03-19 17:00:00 18.3 4 Oeste 14 Oeste 0 -- -- 49
2020-03-19 16:00:00 19.2 5 Norte 11 Nordeste 0 -- -- 46
2020-03-19 15:00:00 20.1 5 Nordeste 13 Nordeste 0 -- -- 44
2020-03-19 14:00:00 19.6 3 Norte 13 Noroeste 0 -- -- 45
2020-03-19 13:00:00 18.3 3 Oeste 18 Este 0 -- -- 48
2020-03-19 12:00:00 17.2 9 Sudeste 24 Sudeste 0 -- -- 52
2020-03-19 11:00:00 14.4 17 Sudeste 25 Sudeste 0 -- -- 79
2020-03-19 10:00:00 8.4 6 Sudoeste 9 Sudoeste 0 -- -- 93
2020-03-19 09:00:00 5 3 Sudoeste 10 Oeste 0 -- -- 93
2020-03-19 08:00:00 3.1 3 Oeste 7 Oeste 0 -- -- 93
2020-03-19 07:00:00 3.8 0 Calma 4 Oeste 0 -- -- 92
2020-03-19 06:00:00 4.5 3 Oeste 7 Oeste 0 -- -- 92
2020-03-19 05:00:00 4.7 0 Calma 6 Sudoeste 0 -- -- 91
2020-03-19 04:00:00 5.4 3 Sur 7 Sudoeste 0 -- -- 90
2020-03-19 03:00:00 5.7 5 Sudoeste 7 Sudoeste 0 -- -- 89
2020-03-19 02:00:00 6.5 6 Oeste 9 Oeste 0 -- -- 88
2020-03-19 01:00:00 6.9 5 Oeste 9 Oeste 0 -- -- 87
2020-03-19 00:00:00 7.5 2 Noroeste 6 Noroeste 0 -- -- 83
2020-03-18 23:00:00 8.3 0 Calma 6 Sudeste 0 -- -- 79
2020-03-18 22:00:00 10.2 0 Calma 5 Noroeste 0 -- -- 70
2020-03-18 21:00:00 12.3 2 Nordeste 5 Sur 0 -- -- 61
2020-03-18 20:00:00 15.3 0 Calma 7 Sudeste 0 -- -- 50
2020-03-18 19:00:00 18.2 6 Sudeste 17 Sur 0 -- -- 43
2020-03-18 18:00:00 19.9 10 Sudeste 20 Sur 0 -- -- 40
2020-03-18 17:00:00 21 9 Sudeste 18 Sudeste 0 -- -- 37
2020-03-18 16:00:00 21.5 7 Sur 19 Sudeste 0 -- -- 36
2020-03-18 15:00:00 20.8 0 Calma 16 Nordeste 0 -- -- 40
2020-03-18 14:00:00 19.4 3 Norte 11 Norte 0 -- -- 43
2020-03-18 13:00:00 17.3 5 Nordeste 10 Nordeste 0 -- -- 47
2020-03-18 12:00:00 15.6 2 Nordeste 5 Nordeste 0 -- -- 62
2020-03-18 11:00:00 11.2 3 Sur 6 Sur 0 -- -- 93
2020-03-18 10:00:00 6.7 0 Calma 4 Sudoeste 0 -- -- 94
2020-03-18 09:00:00 2.4 0 Calma 6 Sudoeste 0 -- -- 94
2020-03-18 08:00:00 0 0 Calma 5 Norte 0 -- -- 94
2020-03-18 07:00:00 0 0 Calma 5 Sudoeste 0 -- -- 93
2020-03-18 06:00:00 1.1 2 Sudoeste 6 Sudoeste 0 -- -- 93
2020-03-18 05:00:00 1.8 0 Calma 9 Nordeste 0 -- -- 93
2020-03-18 04:00:00 2.4 3 Norte 10 Sudeste 0 -- -- 92
2020-03-18 03:00:00 2.4 4 Sur 7 Sudoeste 0 -- -- 92
2020-03-18 02:00:00 2.5 4 Noroeste 9 Sudeste 0 -- -- 91
2020-03-18 01:00:00 3.3 0 Calma 4 Sudeste 0 -- -- 89
2020-03-18 00:00:00 4.4 0 Calma 7 Este 0 -- -- 87
2020-03-17 23:00:00 5.8 3 Sudoeste 8 Oeste 0 -- -- 81
2020-03-17 22:00:00 6.8 2 Norte 10 Sudeste 0 -- -- 72
2020-03-17 21:00:00 10.6 5 Sur 11 Sudeste 0 -- -- 64
2020-03-17 20:00:00 12.7 5 Sudeste 23 Sudeste 0 -- -- 54
2020-03-17 19:00:00 15 11 Sudeste 19 Sudeste 0 -- -- 47
2020-03-17 18:00:00 16.4 5 Sudeste 23 Este 0 -- -- 44
2020-03-17 17:00:00 16.4 11 Sudeste 23 Sudeste 0 -- -- 45
2020-03-17 16:00:00 16.5 6 Nordeste 27 Sudeste 0 -- -- 45
2020-03-17 15:00:00 16.3 5 Sudeste 18 Nordeste 0 -- -- 46
2020-03-17 14:00:00 15.5 6 Nordeste 19 Noroeste 0 -- -- 50
2020-03-17 13:00:00 13.1 4 Noroeste 15 Oeste 0 -- -- 57
2020-03-17 12:00:00 9.7 5 Norte 8 Norte 0 -- -- 65
2020-03-17 11:00:00 6.7 2 Sur 7 Sudeste 0 -- -- 81
2020-03-17 10:00:00 3.8 2 Sudoeste 6 Oeste 0 -- -- 90
2020-03-17 09:00:00 2.2 0 Calma 5 Sur 0 -- -- 91
2020-03-17 08:00:00 1.3 2 Sur 6 Sudoeste 0 -- -- 90
2020-03-17 07:00:00 0.2 3 Sur 6 Sudoeste 0 -- -- 89
2020-03-17 06:00:00 0.5 3 Sudoeste 6 Oeste 0 -- -- 88
2020-03-17 05:00:00 0.1 5 Oeste 10 Oeste 0 -- -- 86
2020-03-17 04:00:00 0 5 Sudoeste 8 Oeste 0 -- -- 82
2020-03-17 03:00:00 0.8 4 Oeste 10 Noroeste 0 -- -- 76
2020-03-17 02:00:00 1.8 4 Oeste 10 Oeste 0 -- -- 73
2020-03-17 01:00:00 2.6 5 Noroeste 21 Noroeste 0 -- -- 72
2020-03-17 00:00:00 2.6 11 Noroeste 21 Noroeste 0 -- -- 73
2020-03-16 23:00:00 3.1 9 Norte 22 Noroeste 0 -- -- 72
2020-03-16 22:00:00 3.6 15 Norte 33 Norte 0 -- -- 70
2020-03-16 21:00:00 4 12 Norte 43 Norte 0 -- -- 67
2020-03-16 20:00:00 4.8 25 Norte 42 Norte 0 -- -- 63
2020-03-16 19:00:00 5.7 27 Norte 55 Norte 0 -- -- 61
2020-03-16 18:00:00 7.1 28 Norte 51 Norte 0 -- -- 60
2020-03-16 17:00:00 7.6 33 Norte 51 Norte 0 -- -- 58
2020-03-16 16:00:00 7.7 28 Norte 58 Norte 0 -- -- 56
2020-03-16 15:00:00 8.5 26 Norte 61 Norte 0 -- -- 59
2020-03-16 14:00:00 7.5 22 Norte 53 Norte 0 -- -- 65
2020-03-16 13:00:00 6 29 Norte 59 Norte 0 -- -- 71
2020-03-16 12:00:00 5.3 26 Norte 46 Norte 0 -- -- 79
2020-03-16 11:00:00 4.2 21 Noroeste 37 Noroeste 0 -- -- 87
2020-03-16 10:00:00 3 13 Noroeste 28 Noroeste 0 -- -- 92
2020-03-16 09:00:00 2.1 20 Noroeste 35 Noroeste 0 -- -- 91
2020-03-16 08:00:00 1.7 18 Noroeste 37 Noroeste 0 -- -- 91
2020-03-16 07:00:00 1.6 21 Noroeste 37 Noroeste 0 -- -- 90
2020-03-16 06:00:00 1.6 19 Noroeste 40 Noroeste 0 -- -- 90
2020-03-16 05:00:00 1.2 18 Noroeste 35 Noroeste 0 -- -- 90
2020-03-16 04:00:00 1.8 21 Noroeste 56 Noroeste 0 -- -- 90
2020-03-16 03:00:00 1.6 12 Noroeste 29 Noroeste 0.1 -- -- 92
2020-03-16 02:00:00 1.4 13 Noroeste 21 Noroeste 0 -- -- 93
2020-03-16 01:00:00 1 9 Noroeste 22 Noroeste 0 -- -- 93
2020-03-16 00:00:00 1.4 10 Noroeste 19 Noroeste 0 -- -- 93
2020-03-15 23:00:00 1.3 12 Noroeste 22 Noroeste 0.1 -- -- 93
2020-03-15 22:00:00 1.3 14 Noroeste 28 Noroeste 0.1 -- -- 93
2020-03-15 21:00:00 1.6 12 Noroeste 22 Noroeste 0 -- -- 93
2020-03-15 20:00:00 2 8 Noroeste 15 Norte 0 -- -- 93
2020-03-15 19:00:00 2.2 10 Norte 26 Norte 0.4 -- -- 93
2020-03-15 18:00:00 2.3 12 Noroeste 30 Noroeste 1 -- -- 92
2020-03-15 17:00:00 3 22 Noroeste 35 Noroeste 0.6 -- -- 89
2020-03-15 16:00:00 5.7 13 Noroeste 36 Noroeste 0.1 -- -- 87
2020-03-15 15:00:00 8.4 19 Oeste -- -- -- -- -- 71
2020-03-15 14:00:00 12.4 14 Sudoeste 32 Sudoeste 0 -- -- 50
2020-03-15 13:00:00 12.3 6 Oeste 21 Oeste 0 -- -- 54
2020-03-15 12:00:00 10.4 4 Sur 9 Oeste 0 -- -- 65
2020-03-15 11:00:00 8.4 2 Oeste 10 Este 0 -- -- 87
2020-03-15 10:00:00 4.2 4 Nordeste 9 Noroeste 0 -- -- 92
2020-03-15 09:00:00 -0.8 0 Calma 5 Noroeste 0 -- -- 93
2020-03-15 08:00:00 -3.8 0 Calma 4 Nordeste 0 -- -- 92
2020-03-15 07:00:00 -3.7 0 Calma 7 Sudeste 0 -- -- 92
2020-03-15 06:00:00 -2.5 6 Sudoeste 10 Sudoeste 0 -- -- 91
2020-03-15 05:00:00 -2 6 Sudoeste 10 Sudoeste 0 -- -- 90
2020-03-15 04:00:00 -1.7 5 Sudoeste 9 Sudoeste 0 -- -- 88
2020-03-15 03:00:00 -0.6 5 Sudoeste 8 Sudoeste 0 -- -- 86
2020-03-15 02:00:00 0.1 4 Sudoeste 8 Sudoeste 0 -- -- 84
2020-03-15 01:00:00 0.6 3 Oeste 5 Oeste 0 -- -- 80
2020-03-15 00:00:00 2.2 3 Sudeste 8 Sur 0 -- -- 75
2020-03-14 23:00:00 4.1 3 Sur 6 Sudoeste 0 -- -- 72
2020-03-14 22:00:00 5.6 6 Sudoeste 25 Sudoeste 0 -- -- 65
2020-03-14 21:00:00 8 4 Sur 6 Sudoeste 0 -- -- 58
2020-03-14 20:00:00 11.5 0 Calma 7 Norte 0 -- -- 47
2020-03-14 19:00:00 15.1 6 Norte 15 Norte 0 -- -- 34
2020-03-14 18:00:00 17.3 10 Norte 20 Norte 0 -- -- 31
2020-03-14 17:00:00 18.3 10 Norte 17 Norte 0 -- -- 33
2020-03-14 16:00:00 17.8 8 Nordeste 13 Nordeste 0 -- -- 34
2020-03-14 15:00:00 15.3 4 Nordeste 9 Este 0 -- -- 46
2020-03-14 14:00:00 11.8 2 Noroeste 9 Oeste 0 -- -- 82
2020-03-14 13:00:00 7.4 3 Noroeste 9 Noroeste 0 -- -- 94
2020-03-14 12:00:00 4.4 5 Norte 9 Nordeste 0 -- -- 94
2020-03-14 11:00:00 3.5 6 Nordeste 10 Nordeste 0 -- -- 95
2020-03-14 10:00:00 2.7 3 Sudeste 8 Sudeste 0 -- -- 94
2020-03-14 09:00:00 2.3 3 Oeste 8 Oeste 0 -- -- 95
2020-03-14 08:00:00 1.8 3 Oeste 6 Sudoeste 0 -- -- 95
2020-03-14 07:00:00 1.8 4 Noroeste 8 Oeste 0 -- -- 95
2020-03-14 06:00:00 2.1 2 Norte 8 Norte 0 -- -- 94
2020-03-14 05:00:00 2.4 0 Calma 8 Nordeste 0 -- -- 94
2020-03-14 04:00:00 2.9 3 Oeste 6 Norte 0 -- -- 93
2020-03-14 03:00:00 2 3 Nordeste 8 Norte 0 -- -- 92
2020-03-14 02:00:00 1.3 0 Calma 5 Oeste 0 -- -- 92
2020-03-14 01:00:00 2 0 Calma 6 Noroeste 0 -- -- 89
2020-03-14 00:00:00 3.3 2 Oeste 9 Oeste 0 -- -- 88
2020-03-13 23:00:00 5.1 5 Oeste 20 Noroeste 0 -- -- 86
2020-03-13 22:00:00 6 6 Oeste 9 Oeste 0 -- -- 81
2020-03-13 21:00:00 7 3 Oeste 17 Noroeste 0 -- -- 79
2020-03-13 20:00:00 8.4 12 Norte 18 Noroeste 0 -- -- 74
2020-03-13 19:00:00 11.6 8 Noroeste 25 Norte 0 -- -- 64
2020-03-13 18:00:00 13 17 Noroeste 28 Norte 0 -- -- 62
2020-03-13 17:00:00 14 16 Norte 23 Noroeste 0 -- -- 60
2020-03-13 16:00:00 14.1 10 Noroeste 20 Norte 0 -- -- 62
2020-03-13 15:00:00 13.7 13 Norte 21 Noroeste 0 -- -- 65
2020-03-13 14:00:00 12.1 14 Norte 25 Norte 0 -- -- 68
2020-03-13 13:00:00 11.9 12 Norte 20 Nordeste 0 -- -- 72
2020-03-13 12:00:00 11.1 8 Nordeste 13 Norte 0 -- -- 79
2020-03-13 11:00:00 7.7 8 Nordeste 14 Norte 0 -- -- 89
2020-03-13 10:00:00 6.6 6 Nordeste 11 Norte 0 -- -- 92
2020-03-13 09:00:00 5.7 5 Nordeste 8 Nordeste 0 -- -- 92
2020-03-13 08:00:00 5.3 2 Sur 5 Sur 0 -- -- 92
2020-03-13 07:00:00 5.3 0 Calma 4 Norte 0 -- -- 92
2020-03-13 06:00:00 5.4 3 Norte 6 Noroeste 0 -- -- 91
2020-03-13 05:00:00 5.3 0 Calma 11 Noroeste 0 -- -- 91
2020-03-13 04:00:00 5.4 7 Noroeste 14 Noroeste 0 -- -- 90
2020-03-13 03:00:00 5.5 6 Noroeste 14 Noroeste 0 -- -- 90
2020-03-13 02:00:00 5.7 10 Noroeste 17 Noroeste 0 -- -- 90
2020-03-13 01:00:00 6 6 Noroeste 12 Noroeste 0 -- -- 89
2020-03-13 00:00:00 6.3 6 Noroeste 13 Noroeste 0 -- -- 89
2020-03-12 23:00:00 6.6 8 Noroeste 17 Noroeste 0 -- -- 88
2020-03-12 22:00:00 6.8 10 Noroeste 18 Noroeste 0 -- -- 88
2020-03-12 21:00:00 7.3 10 Noroeste 19 Noroeste 0 -- -- 86
2020-03-12 20:00:00 8.8 11 Noroeste 24 Noroeste 0 -- -- 78
2020-03-12 19:00:00 11.5 15 Norte 26 Norte 0 -- -- 66
2020-03-12 18:00:00 13.5 18 Noroeste 28 Noroeste 0 -- -- 60
2020-03-12 17:00:00 14.5 18 Norte 27 Noroeste 0 -- -- 58
2020-03-12 16:00:00 15.4 16 Norte 26 Norte 0 -- -- 58
2020-03-12 15:00:00 15.2 11 Norte 23 Norte 0 -- -- 56
2020-03-12 14:00:00 14 11 Noroeste 20 Noroeste 0 -- -- 63
2020-03-12 13:00:00 11.9 7 Noroeste 15 Noroeste 0 -- -- 78
2020-03-12 12:00:00 10 9 Norte 13 Norte 0 -- -- 89
2020-03-12 11:00:00 9.7 6 Noroeste 14 Noroeste 0 -- -- 93
2020-03-12 10:00:00 8.9 7 Norte 18 Noroeste 0 -- -- 93
2020-03-12 09:00:00 8.7 10 Noroeste 14 Norte 0 -- -- 93
2020-03-12 08:00:00 8.8 6 Noroeste 12 Noroeste 0 -- -- 93
2020-03-12 07:00:00 8.9 5 Norte 8 Noroeste 0 -- -- 93
2020-03-12 06:00:00 8.8 2 Noroeste 8 Norte 0 -- -- 92
2020-03-12 05:00:00 7.9 3 Sudoeste 5 Sudoeste 0 -- -- 92
2020-03-12 04:00:00 6.1 4 Sudoeste 6 Oeste 0 -- -- 91
2020-03-12 03:00:00 4.7 0 Calma 6 Sudoeste 0 -- -- 90
2020-03-12 02:00:00 4.7 0 Calma 3 Noroeste 0 -- -- 88
2020-03-12 01:00:00 6.5 0 Calma 6 Sudoeste 0 -- -- 85
2020-03-12 00:00:00 7.3 0 Calma 6 Noroeste 0 -- -- 83
2020-03-11 23:00:00 9.1 2 Oeste 8 Nordeste 0 -- -- 79
2020-03-11 22:00:00 9.6 4 Norte 7 Noroeste 0 -- -- 67
2020-03-11 21:00:00 12 0 Calma 12 Oeste 0 -- -- 55
2020-03-11 20:00:00 15.3 7 Oeste 17 Oeste 0 -- -- 43
2020-03-11 19:00:00 18.1 11 Oeste 21 Oeste 0 -- -- 36
2020-03-11 18:00:00 21.3 10 Oeste 26 Oeste 0 -- -- 31
2020-03-11 17:00:00 22.1 15 Oeste 30 Oeste 0 -- -- 31
2020-03-11 16:00:00 22.5 17 Oeste 36 Oeste 0 -- -- 31
2020-03-11 15:00:00 22.5 20 Oeste 36 Oeste 0 -- -- 30
2020-03-11 14:00:00 22.2 2 Nordeste 10 Este 0 -- -- 37
2020-03-11 13:00:00 20.5 3 Sudeste 14 Sudeste 0 -- -- 42
2020-03-11 12:00:00 16.5 0 Calma 7 Sur 0 -- -- 70
2020-03-11 11:00:00 11.4 3 Sudoeste 7 Sudoeste 0 -- -- 92
2020-03-11 10:00:00 7.3 3 Sudoeste 7 Sudoeste 0 -- -- 94
2020-03-11 09:00:00 2.9 0 Calma -- -- 0 -- -- 94
2020-03-11 08:00:00 0.2 0 Calma 3 Sudoeste 0 -- -- 94
2020-03-11 07:00:00 1.3 3 Sur 4 Sur 0 -- -- 93
2020-03-11 06:00:00 1.3 2 Sudoeste 4 Sudoeste 0 -- -- 93
2020-03-11 05:00:00 1.5 2 Norte 6 Sudoeste 0 -- -- 92
2020-03-11 04:00:00 2.6 4 Sudoeste 6 Sudoeste 0 -- -- 92
2020-03-11 03:00:00 2.9 3 Oeste 5 Sudoeste 0 -- -- 92
2020-03-11 02:00:00 3.7 2 Sur 6 Sur 0 -- -- 91
2020-03-11 01:00:00 4.6 0 Calma 5 Oeste 0 -- -- 89
2020-03-11 00:00:00 4.7 2 Norte 6 Sur 0 -- -- 87
2020-03-10 23:00:00 6.1 0 Calma 6 Sur 0 -- -- 82
2020-03-10 22:00:00 7.8 0 Calma 9 Noroeste 0 -- -- 76
2020-03-10 21:00:00 10.9 3 Sudoeste 10 Oeste 0 -- -- 66
2020-03-10 20:00:00 12.9 0 Calma 10 Norte 0 -- -- 63
2020-03-10 19:00:00 15.2 9 Norte 14 Norte 0 -- -- 55
2020-03-10 18:00:00 17.8 10 Norte 21 Oeste 0 -- -- 47
2020-03-10 17:00:00 19.6 13 Oeste 27 Oeste 0 -- -- 36
2020-03-10 16:00:00 20.5 10 Oeste 28 Oeste 0 -- -- 33
2020-03-10 15:00:00 20.2 15 Oeste 31 Oeste 0 -- -- 34
2020-03-10 14:00:00 19.9 12 Oeste 26 Sudoeste 0 -- -- 26
2020-03-10 13:00:00 18.1 3 Noroeste 9 Sur 0 -- -- 25
2020-03-10 12:00:00 14.1 3 Sur 8 Sudoeste 0 -- -- 54
2020-03-10 11:00:00 10 0 Calma 7 Sudoeste 0 -- -- 84
2020-03-10 10:00:00 5.9 2 Sudoeste 6 Sudeste 0 -- -- 93
2020-03-10 09:00:00 1.2 4 Sudoeste 6 Sudoeste 0 -- -- 93
2020-03-10 08:00:00 0.2 3 Sudoeste 5 Sudoeste 0 -- -- 93
2020-03-10 07:00:00 0.5 4 Sudoeste 6 Sudoeste 0 -- -- 93
2020-03-10 06:00:00 1 0 Calma -- -- 0 -- -- 93
2020-03-10 05:00:00 1.2 0 Calma -- -- 0 -- -- 92
2020-03-10 04:00:00 1.8 0 Calma -- -- 0 -- -- 92
2020-03-10 03:00:00 2.5 0 Calma 7 Sudoeste 0 -- -- 91
2020-03-10 02:00:00 3.7 0 Calma 4 Sudoeste 0 -- -- 90
2020-03-10 01:00:00 4.3 0 Calma 5 Oeste 0 -- -- 87
2020-03-10 00:00:00 4.7 0 Calma 6 Sudoeste 0 -- -- 83
2020-03-09 23:00:00 6.7 3 Sudoeste 10 Oeste 0 -- -- 79
2020-03-09 22:00:00 7.6 4 Oeste 9 Oeste 0 -- -- 73
2020-03-09 21:00:00 8.4 4 Oeste 12 Noroeste 0 -- -- 68
2020-03-09 20:00:00 9.3 9 Noroeste 12 Noroeste 0 -- -- 63
2020-03-09 19:00:00 12.1 11 Norte 15 Noroeste 0 -- -- 52
2020-03-09 18:00:00 13.3 10 Norte 15 Noroeste 0 -- -- 47
2020-03-09 17:00:00 13.6 10 Norte 22 Noroeste 0 -- -- 46
2020-03-09 16:00:00 13.6 14 Norte 24 Noroeste 0 -- -- 47
2020-03-09 15:00:00 12 16 Noroeste 26 Norte 0 -- -- 50
2020-03-09 14:00:00 11.9 15 Norte 24 Norte 0 -- -- 53
2020-03-09 13:00:00 10.2 13 Norte 23 Norte 0 -- -- 62
2020-03-09 12:00:00 9.1 15 Norte 27 Noroeste 0 -- -- 67
2020-03-09 11:00:00 7.4 3 Noroeste 8 Noroeste 0 -- -- 93
2020-03-09 10:00:00 4.4 2 Oeste -- -- -- -- -- 94
2020-03-09 09:00:00 1.3 3 Sudeste 8 Sur 0 -- -- 94
2020-03-09 08:00:00 0 3 Sur 5 Noroeste 0 -- -- 93
2020-03-09 07:00:00 0.7 0 Calma 8 Oeste 0 -- -- 93
2020-03-09 06:00:00 2.4 0 Calma 5 Noroeste 0 -- -- 92
2020-03-09 05:00:00 2.8 0 Calma 9 Norte 0 -- -- 92
2020-03-09 04:00:00 3 5 Norte 8 Norte 0 -- -- 90
2020-03-09 03:00:00 5 5 Noroeste 8 Noroeste 0 -- -- 90
2020-03-09 02:00:00 5 4 Noroeste 7 Noroeste 0 -- -- 89
2020-03-09 01:00:00 5.3 2 Norte 11 Noroeste 0 -- -- 87
2020-03-09 00:00:00 5.3 5 Noroeste 15 Oeste 0 -- -- 87
2020-03-08 23:00:00 5.9 9 Oeste 26 Noroeste 0 -- -- 85
2020-03-08 22:00:00 6.2 8 Noroeste 21 Noroeste 0 -- -- 82
2020-03-08 21:00:00 7.1 15 Noroeste 24 Noroeste 0 -- -- 80
2020-03-08 20:00:00 8.2 9 Noroeste 29 Noroeste 0 -- -- 76
2020-03-08 19:00:00 9.7 15 Noroeste 28 Oeste 0 -- -- 72
2020-03-08 18:00:00 11.2 13 Oeste 31 Oeste 0 -- -- 72
2020-03-08 17:00:00 12.9 11 Sudoeste 35 Oeste 0 -- -- 68
2020-03-08 16:00:00 12.6 11 Sudoeste 38 Sudoeste 0 -- -- 71
2020-03-08 15:00:00 12.5 17 Sudoeste 33 Sudoeste 0 -- -- 75
2020-03-08 14:00:00 9.8 12 Sudoeste 28 Sudoeste 0.1 -- -- 83
2020-03-08 13:00:00 8.8 3 Sur 9 Sudoeste 0 -- -- 90
2020-03-08 12:00:00 7.9 2 Sudoeste 10 Sur 0 -- -- 93
2020-03-08 11:00:00 6.8 4 Sudoeste 10 Sudeste 0 -- -- 94
2020-03-08 10:00:00 5.7 4 Sudeste 6 Sudeste 0 -- -- 94
2020-03-08 09:00:00 4.3 0 Calma 4 Sudoeste 0 -- -- 94
2020-03-08 08:00:00 3 0 Calma 6 Este 0 -- -- 94
2020-03-08 07:00:00 2.1 5 Sudeste 10 Sudeste 0.1 -- -- 94
2020-03-08 06:00:00 1.9 0 Calma 4 Sudeste 0 -- -- 94
2020-03-08 05:00:00 1 0 Calma 5 Sudoeste 0 -- -- 93
2020-03-08 04:00:00 0.4 0 Calma 5 Noroeste 0 -- -- 93
2020-03-08 03:00:00 0.5 0 Calma 10 Sudeste 0 -- -- 92
2020-03-08 02:00:00 1.3 2 Sur 5 Sudeste 0 -- -- 92
2020-03-08 01:00:00 2.5 0 Calma 5 Noroeste 0 -- -- 90
2020-03-08 00:00:00 2.7 3 Nordeste 6 Sur 0 -- -- 88
2020-03-07 23:00:00 4.9 2 Norte 18 Oeste 0 -- -- 86
2020-03-07 22:00:00 6.3 6 Oeste 23 Oeste 0 -- -- 82
2020-03-07 21:00:00 7.3 11 Oeste 18 Oeste 0 -- -- 73
2020-03-07 20:00:00 8.7 5 Noroeste 11 Norte 0 -- -- 67
2020-03-07 19:00:00 11.8 7 Norte 13 Norte 0 -- -- 57
2020-03-07 18:00:00 13.6 9 Norte 14 Norte 0 -- -- 50
2020-03-07 17:00:00 14.8 3 Sur 9 Sudoeste 0 -- -- 46
2020-03-07 16:00:00 14 6 Sur 10 Sur 0 -- -- 47
2020-03-07 15:00:00 12.9 4 Sudeste 11 Sur 0 -- -- 49
2020-03-07 14:00:00 12.1 4 Sur 12 Sur 0 -- -- 52
2020-03-07 13:00:00 10.5 5 Norte 16 Norte 0 -- -- 59
2020-03-07 12:00:00 10 7 Norte 16 Norte 0 -- -- 67
2020-03-07 11:00:00 8.4 8 Norte 16 Noroeste 0 -- -- 86
2020-03-07 10:00:00 6.6 9 Noroeste 15 Noroeste 0 -- -- 93
2020-03-07 09:00:00 4.9 9 Noroeste 14 Noroeste 0 -- -- 93
2020-03-07 08:00:00 3.8 9 Norte 15 Norte 0 -- -- 93
2020-03-07 07:00:00 4.7 0 Calma 6 Oeste 0 -- -- 93
2020-03-07 06:00:00 5.3 5 Oeste 9 Norte 0.7 -- -- 93
2020-03-07 05:00:00 5.1 3 Sudoeste 8 Sudoeste 0 -- -- 92
2020-03-07 04:00:00 5.2 2 Sudoeste 9 Oeste 0.1 -- -- 92
2020-03-07 03:00:00 5.1 6 Oeste 13 Oeste 0 -- -- 91
2020-03-07 02:00:00 4.7 6 Oeste 13 Oeste 0.1 -- -- 88
2020-03-07 01:00:00 4.9 9 Oeste 15 Oeste 0 -- -- 83
2020-03-07 00:00:00 5.2 10 Noroeste 18 Noroeste 0 -- -- 80
2020-03-06 23:00:00 5.2 7 Noroeste 13 Noroeste 0 -- -- 76
2020-03-06 22:00:00 5 6 Noroeste 15 Noroeste 0 -- -- 75
2020-03-06 21:00:00 5.1 8 Noroeste 30 Noroeste 0 -- -- 70
2020-03-06 20:00:00 6 16 Noroeste 26 Norte 0 -- -- 62
2020-03-06 19:00:00 6.4 14 Noroeste 36 Norte 0 -- -- 54
2020-03-06 18:00:00 7.9 20 Norte 41 Noroeste 0 -- -- 50
2020-03-06 17:00:00 7.6 22 Norte 45 Noroeste 0 -- -- 52
2020-03-06 16:00:00 9.2 22 Norte 39 Norte 0 -- -- 55
2020-03-06 15:00:00 6.9 24 Norte 43 Noroeste 0 -- -- 63
2020-03-06 14:00:00 6.3 19 Noroeste 37 Norte 0.1 -- -- 73
2020-03-06 13:00:00 6.1 24 Noroeste 44 Noroeste 0 -- -- 76
2020-03-06 12:00:00 5.5 18 Noroeste 45 Noroeste 0 -- -- 82
2020-03-06 11:00:00 -- -- -- -- -- -- -- -- --
2020-03-06 10:00:00 3.9 23 Noroeste 42 Noroeste 0 -- -- 88
2020-03-06 09:00:00 3.2 19 Noroeste 39 Noroeste 0.1 -- -- 90
2020-03-06 08:00:00 3.3 14 Noroeste 31 Noroeste 0 -- -- 90
2020-03-06 07:00:00 3.1 13 Noroeste 35 Noroeste 0.3 -- -- 90
2020-03-06 06:00:00 3.1 17 Noroeste 37 Oeste 0 -- -- 89
2020-03-06 05:00:00 3.3 16 Noroeste 41 Noroeste 0.1 -- -- 90
2020-03-06 04:00:00 3.9 17 Noroeste 31 Oeste 0.1 -- -- 90
2020-03-06 03:00:00 4.6 14 Noroeste 31 Noroeste 0.7 -- -- 90
2020-03-06 02:00:00 5 14 Noroeste 25 Noroeste 0.7 -- -- 90
2020-03-06 01:00:00 5.2 16 Noroeste 36 Noroeste 0.5 -- -- 90
2020-03-06 00:00:00 4.9 8 Oeste 19 Oeste 1.2 -- -- 90
2020-03-05 23:00:00 4.8 5 Oeste 22 Oeste 0.7 -- -- 89
2020-03-05 22:00:00 4.9 10 Oeste 22 Oeste 0 -- -- 88
2020-03-05 21:00:00 5.3 10 Oeste 28 Oeste 0.1 -- -- 87
2020-03-05 20:00:00 5.8 14 Oeste 25 Oeste 0 -- -- 81
2020-03-05 19:00:00 6.6 10 Noroeste 35 Oeste 0 -- -- 76
2020-03-05 18:00:00 7.7 24 Oeste 45 Oeste 0.4 -- -- 77
2020-03-05 17:00:00 6.2 21 Noroeste 41 Noroeste 0.7 -- -- 84
2020-03-05 16:00:00 7.3 13 Noroeste 34 Noroeste 0.8 -- -- 87
2020-03-05 15:00:00 9.3 19 Noroeste 39 Noroeste 0.4 -- -- 79
2020-03-05 14:00:00 8.8 20 Noroeste 33 Noroeste 2.6 -- -- 88
2020-03-05 13:00:00 8.1 15 Noroeste 35 Oeste 2.5 -- -- 90
2020-03-05 12:00:00 8.7 17 Oeste 33 Oeste 0 -- -- 84
2020-03-05 11:00:00 7 10 Oeste 26 Oeste 0.4 -- -- 89
2020-03-05 10:00:00 7.3 13 Oeste 26 Oeste 0.1 -- -- 85
2020-03-05 09:00:00 5.5 12 Oeste 35 Oeste 0.5 -- -- 87
2020-03-05 08:00:00 5.7 2 Sudoeste 17 Oeste 0.1 -- -- 90
2020-03-05 07:00:00 6 8 Sudoeste 33 Oeste 0.6 -- -- 89
2020-03-05 06:00:00 6.8 24 Noroeste 42 Noroeste 2.4 -- -- 90
2020-03-05 05:00:00 8.6 22 Noroeste 43 Noroeste 5.9 -- -- 90
2020-03-05 04:00:00 10.4 7 Sudoeste 23 Sudoeste 2.1 -- -- 87
2020-03-05 03:00:00 11 4 Sur 20 Sur 0.2 -- -- 85
2020-03-05 02:00:00 11.1 13 Sudoeste 32 Sur 0 -- -- 88
2020-03-05 01:00:00 11.1 16 Sudoeste 41 Sudoeste 0 -- -- 89
2020-03-05 00:00:00 11.2 10 Sudoeste 32 Oeste 0.2 -- -- 91
2020-03-04 23:00:00 11.1 13 Sudoeste 25 Sudoeste 0.2 -- -- 91
2020-03-04 22:00:00 11.3 6 Sudoeste 21 Sudoeste 0 -- -- 91
2020-03-04 21:00:00 11.2 15 Sudoeste 31 Sudoeste 0.1 -- -- 90
2020-03-04 20:00:00 11.5 12 Sudoeste 25 Sudoeste 0.1 -- -- 90
2020-03-04 19:00:00 11.9 10 Sudoeste 26 Sudoeste 0.1 -- -- 88
2020-03-04 18:00:00 12.7 9 Sudoeste 28 Oeste 0 -- -- 83
2020-03-04 17:00:00 13.9 14 Oeste 32 Sudoeste 0 -- -- 79
2020-03-04 16:00:00 13.2 12 Sudoeste 28 Sudoeste 0 -- -- 82
2020-03-04 15:00:00 12.8 15 Sudoeste 33 Sudoeste 0 -- -- 83
2020-03-04 14:00:00 13 16 Sudoeste 31 Sudoeste 0 -- -- 86
2020-03-04 13:00:00 12.9 10 Sudoeste 28 Sudoeste 0.1 -- -- 92
2020-03-04 12:00:00 11.3 8 Oeste 29 Sudoeste 0 -- -- 92
2020-03-04 11:00:00 11.3 12 Sudoeste 25 Sudoeste 0 -- -- 93
2020-03-04 10:00:00 10.4 10 Oeste 27 Oeste 0 -- -- 93
2020-03-04 09:00:00 9.8 6 Sudoeste 17 Oeste 0 -- -- 93
2020-03-04 08:00:00 9.5 5 Oeste 15 Sudoeste 0 -- -- 93
2020-03-04 07:00:00 9.1 5 Sudeste 10 Oeste 0 -- -- 93
2020-03-04 06:00:00 9.3 3 Sudoeste 15 Sudoeste 0 -- -- 93
2020-03-04 05:00:00 9.4 11 Sudoeste 19 Sudoeste 0 -- -- 93
2020-03-04 04:00:00 9.5 8 Sudoeste 21 Sudoeste 0 -- -- 93
2020-03-04 03:00:00 9.9 12 Sudoeste 22 Oeste 0 -- -- 93
2020-03-04 02:00:00 10.3 12 Sudoeste 23 Sudoeste 0 -- -- 93
2020-03-04 01:00:00 10.4 7 Sudoeste 24 Oeste 0 -- -- 93
2020-03-04 00:00:00 10.5 8 Sudoeste 21 Sudoeste 0 -- -- 92